PWSweather.com
Personal Weather Stations
Station Observations
4BILLL
The Overlook At The Hills Of Texas, Austin, TX 78737

The Overlook At The Hills Of TexasAustin, TX 78737

Lat: 30.179, Lon: -97.958

Elevation: 1130

Station Type: Davis Vantage Pro II

Latest ConditionsUpdated 3:28:48 AM CDT Friday, Aug 18, 2017
Currently Today's Max Today's Min Today's Average
Temperature 75.9°F24.4°C 81.5°F27.5°C 75.9°F24.4°C 78.4°F25.8°C
Dew Point 72.4°F22.4°C 73.2°F22.9°C 70.3°F21.3°C 71.8°F22.1°C
Winds 1.0 mph SSW1.6 kmh SSW 2.0 mph SSE3.2 kmh SSE - 0.8 mph 1.3 kmh
Wind Gusts 2.0 mph3.2 kmh 6.0 mph9.7 kmh - -
Humidity 89% 89% 69% 81%
Pressure 29.95 in1014.2 mb 29.98 in1015.2 mb 29.95 in1014.2 mb -
Hour Temp Dew Point Humidity Winds Wind Gusts Pressure Precip Precip Rate Daily Precip Total
03:28 AM 75.9°F24.4°C 72.4°F22.4°C 89% 1.0 mph SSW1.6 kmh SSW 2.0 mph3.2 kmh 29.95 in1014.2 mb 0.00 in0.0 mm 0.00 in0.0 mm 0.00 in0.0 mm
03:23 AM 76.1°F24.5°C 72.6°F22.6°C 89% 2.0 mph SSW3.2 kmh SSW 2.0 mph3.2 kmh 29.95 in1014.2 mb 0.00 in0.0 mm 0.00 in0.0 mm 0.00 in0.0 mm
03:18 AM 76.2°F24.6°C 72.7°F22.6°C 89% 1.0 mph SW1.6 kmh SW 3.0 mph4.8 kmh 29.95 in1014.2 mb 0.00 in0.0 mm 0.00 in0.0 mm 0.00 in0.0 mm
03:13 AM 76.4°F24.7°C 72.9°F22.7°C 89% Calm Calm 3.0 mph4.8 kmh 29.95 in1014.2 mb 0.00 in0.0 mm 0.00 in0.0 mm 0.00 in0.0 mm
03:08 AM 76.5°F24.7°C 73.0°F22.8°C 89% 1.0 mph SSW1.6 kmh SSW 6.0 mph9.7 kmh 29.95 in1014.2 mb 0.00 in0.0 mm 0.00 in0.0 mm 0.00 in0.0 mm
03:03 AM 76.6°F24.8°C 73.1°F22.8°C 89% 1.0 mph SSW1.6 kmh SSW 6.0 mph9.7 kmh 29.95 in1014.2 mb 0.00 in0.0 mm 0.00 in0.0 mm 0.00 in0.0 mm
02:58 AM 76.7°F24.8°C 73.2°F22.9°C 89% Calm Calm 6.0 mph9.7 kmh 29.95 in1014.2 mb 0.00 in0.0 mm 0.00 in0.0 mm 0.00 in0.0 mm
02:53 AM 76.8°F24.9°C 73.0°F22.8°C 88% 2.0 mph SW3.2 kmh SW 6.0 mph9.7 kmh 29.95 in1014.2 mb 0.00 in0.0 mm 0.00 in0.0 mm 0.00 in0.0 mm
02:48 AM 76.9°F24.9°C 73.1°F22.8°C 88% 2.0 mph SW3.2 kmh SW 5.0 mph8.0 kmh 29.95 in1014.2 mb 0.00 in0.0 mm 0.00 in0.0 mm 0.00 in0.0 mm
02:43 AM 76.9°F24.9°C 72.7°F22.6°C 87% 2.0 mph S3.2 kmh S 4.0 mph6.4 kmh 29.95 in1014.2 mb 0.00 in0.0 mm 0.00 in0.0 mm 0.00 in0.0 mm
02:38 AM 77.0°F25.0°C 72.5°F22.5°C 86% 2.0 mph SW3.2 kmh SW 4.0 mph6.4 kmh 29.95 in1014.2 mb 0.00 in0.0 mm 0.00 in0.0 mm 0.00 in0.0 mm
02:33 AM 77.1°F25.1°C 72.2°F22.3°C 85% 1.0 mph SW1.6 kmh SW 4.0 mph6.4 kmh 29.96 in1014.6 mb 0.00 in0.0 mm 0.00 in0.0 mm 0.00 in0.0 mm
02:28 AM 77.2°F25.1°C 72.3°F22.4°C 85% 1.0 mph SSW1.6 kmh SSW 2.0 mph3.2 kmh 29.95 in1014.2 mb 0.00 in0.0 mm 0.00 in0.0 mm 0.00 in0.0 mm
02:23 AM 77.3°F25.2°C 72.1°F22.3°C 84% 2.0 mph SSW3.2 kmh SSW 2.0 mph3.2 kmh 29.95 in1014.2 mb 0.00 in0.0 mm 0.00 in0.0 mm 0.00 in0.0 mm
02:18 AM 77.4°F25.2°C 71.8°F22.1°C 83% 1.0 mph SSW1.6 kmh SSW 3.0 mph4.8 kmh 29.96 in1014.6 mb 0.00 in0.0 mm 0.00 in0.0 mm 0.00 in0.0 mm
02:13 AM 77.5°F25.3°C 71.9°F22.2°C 83% 1.0 mph SSW1.6 kmh SSW 3.0 mph4.8 kmh 29.96 in1014.6 mb 0.00 in0.0 mm 0.00 in0.0 mm 0.00 in0.0 mm
02:08 AM 77.6°F25.3°C 71.7°F22.1°C 82% 2.0 mph SSW3.2 kmh SSW 3.0 mph4.8 kmh 29.96 in1014.6 mb 0.00 in0.0 mm 0.00 in0.0 mm 0.00 in0.0 mm
02:03 AM 77.7°F25.4°C 71.8°F22.1°C 82% 1.0 mph SW1.6 kmh SW 3.0 mph4.8 kmh 29.96 in1014.6 mb 0.00 in0.0 mm 0.00 in0.0 mm 0.00 in0.0 mm
01:58 AM 77.8°F25.4°C 71.8°F22.1°C 82% 2.0 mph WSW3.2 kmh WSW 3.0 mph4.8 kmh 29.96 in1014.6 mb 0.00 in0.0 mm 0.00 in0.0 mm 0.00 in0.0 mm
01:53 AM 78.0°F25.6°C 72.0°F22.2°C 82% Calm Calm 3.0 mph4.8 kmh 29.96 in1014.6 mb 0.00 in0.0 mm 0.00 in0.0 mm 0.00 in0.0 mm
01:48 AM 78.0°F25.6°C 71.7°F22.1°C 81% Calm Calm 5.0 mph8.0 kmh 29.96 in1014.6 mb 0.00 in0.0 mm 0.00 in0.0 mm 0.00 in0.0 mm
01:43 AM 78.2°F25.7°C 71.9°F22.2°C 81% 1.0 mph SSW1.6 kmh SSW 5.0 mph8.0 kmh 29.96 in1014.6 mb 0.00 in0.0 mm 0.00 in0.0 mm 0.00 in0.0 mm
01:38 AM 78.4°F25.8°C 72.1°F22.3°C 81% Calm Calm 3.0 mph4.8 kmh 29.97 in1014.9 mb 0.00 in0.0 mm 0.00 in0.0 mm 0.00 in0.0 mm
01:33 AM 78.5°F25.8°C 71.8°F22.1°C 80% 1.0 mph S1.6 kmh S 3.0 mph4.8 kmh 29.97 in1014.9 mb 0.00 in0.0 mm 0.00 in0.0 mm 0.00 in0.0 mm
01:28 AM 78.6°F25.9°C 71.9°F22.2°C 80% Calm Calm 1.0 mph1.6 kmh 29.97 in1014.9 mb 0.00 in0.0 mm 0.00 in0.0 mm 0.00 in0.0 mm
01:23 AM 78.8°F26.0°C 71.7°F22.1°C 79% Calm Calm 1.0 mph1.6 kmh 29.97 in1014.9 mb 0.00 in0.0 mm 0.00 in0.0 mm 0.00 in0.0 mm
01:18 AM 78.9°F26.1°C 71.8°F22.1°C 79% 1.0 mph SW1.6 kmh SW 4.0 mph6.4 kmh 29.98 in1015.2 mb 0.00 in0.0 mm 0.00 in0.0 mm 0.00 in0.0 mm
01:13 AM 79.1°F26.2°C 71.6°F22.0°C 78% 1.0 mph SW1.6 kmh SW 2.0 mph3.2 kmh 29.98 in1015.2 mb 0.00 in0.0 mm 0.00 in0.0 mm 0.00 in0.0 mm
01:08 AM 79.2°F26.2°C 71.3°F21.8°C 77% 1.0 mph S1.6 kmh S 2.0 mph3.2 kmh 29.98 in1015.2 mb 0.00 in0.0 mm 0.00 in0.0 mm 0.00 in0.0 mm
01:03 AM 79.4°F26.3°C 71.2°F21.8°C 76% Calm Calm 1.0 mph1.6 kmh 29.98 in1015.2 mb 0.00 in0.0 mm 0.00 in0.0 mm 0.00 in0.0 mm
12:58 AM 79.6°F26.4°C 71.3°F21.8°C 76% Calm Calm -- 29.98 in1015.2 mb 0.00 in0.0 mm 0.00 in0.0 mm 0.00 in0.0 mm
12:53 AM 79.7°F26.5°C 71.1°F21.7°C 75% Calm Calm 1.0 mph1.6 kmh 29.98 in1015.2 mb 0.00 in0.0 mm 0.00 in0.0 mm 0.00 in0.0 mm
12:48 AM 79.9°F26.6°C 70.8°F21.6°C 74% Calm Calm 2.0 mph3.2 kmh 29.98 in1015.2 mb 0.00 in0.0 mm 0.00 in0.0 mm 0.00 in0.0 mm
12:43 AM 80.0°F26.7°C 70.9°F21.6°C 74% Calm Calm -- 29.98 in1015.2 mb 0.00 in0.0 mm 0.00 in0.0 mm 0.00 in0.0 mm
12:38 AM 80.2°F26.8°C 70.7°F21.5°C 73% Calm Calm 2.0 mph3.2 kmh 29.98 in1015.2 mb 0.00 in0.0 mm 0.00 in0.0 mm 0.00 in0.0 mm
12:33 AM 80.4°F26.9°C 70.9°F21.6°C 73% Calm Calm -- 29.98 in1015.2 mb 0.00 in0.0 mm 0.00 in0.0 mm 0.00 in0.0 mm
12:28 AM 80.6°F27.0°C 71.1°F21.7°C 73% Calm Calm 3.0 mph4.8 kmh 29.98 in1015.2 mb 0.00 in0.0 mm 0.00 in0.0 mm 0.00 in0.0 mm
12:23 AM 80.7°F27.1°C 70.8°F21.6°C 72% 2.0 mph SSE3.2 kmh SSE 3.0 mph4.8 kmh 29.98 in1015.2 mb 0.00 in0.0 mm 0.00 in0.0 mm 0.00 in0.0 mm
12:18 AM 80.9°F27.2°C 70.6°F21.4°C 71% Calm Calm -- 29.98 in1015.2 mb 0.00 in0.0 mm 0.00 in0.0 mm 0.00 in0.0 mm
12:13 AM 81.1°F27.3°C 70.4°F21.3°C 70% Calm Calm 1.0 mph1.6 kmh 29.98 in1015.2 mb 0.00 in0.0 mm 0.00 in0.0 mm 0.00 in0.0 mm
12:08 AM 81.3°F27.4°C 70.6°F21.4°C 70% Calm Calm -- 29.98 in1015.2 mb 0.00 in0.0 mm 0.00 in0.0 mm 0.00 in0.0 mm
12:03 AM 81.5°F27.5°C 70.3°F21.3°C 69% Calm Calm 3.0 mph4.8 kmh 29.98 in1015.2 mb 0.00 in0.0 mm 0.00 in0.0 mm 0.00 in0.0 mm